createdAt,value
2023-03-15T00:00:23.536Z,3.20
2023-03-15T00:03:11.504Z,2.25
2023-03-15T00:05:58.650Z,2.15
2023-03-15T00:08:48.724Z,2.25
2023-03-15T00:11:35.920Z,1.98
2023-03-15T00:14:23.320Z,2.15
2023-03-15T00:17:11.742Z,2.10
2023-03-15T00:19:59.135Z,2.22
2023-03-15T00:22:46.401Z,1.92
2023-03-15T00:25:33.775Z,2.10
2023-03-15T00:28:21.271Z,1.87
2023-03-15T00:31:17.070Z,1.90
2023-03-15T00:34:04.562Z,2.07
2023-03-15T00:36:53.217Z,1.95
2023-03-15T00:39:41.010Z,1.87
2023-03-15T00:42:29.422Z,1.70
2023-03-15T00:45:18.036Z,1.90
2023-03-15T00:48:07.504Z,1.98
2023-03-15T00:51:03.715Z,1.77
2023-03-15T00:53:53.157Z,1.77
2023-03-15T00:56:41.217Z,2.10
2023-03-15T00:59:32.117Z,2.05
2023-03-15T01:02:21.494Z,1.95
2023-03-15T01:05:09.790Z,1.80
2023-03-15T01:07:56.950Z,1.50
2023-03-15T01:10:43.944Z,2.22
2023-03-15T01:13:31.293Z,2.00
2023-03-15T01:16:18.949Z,1.70
2023-03-15T01:19:06.304Z,2.27
2023-03-15T01:21:53.525Z,1.95
2023-03-15T01:24:40.669Z,1.87
2023-03-15T01:27:27.969Z,2.27
2023-03-15T01:30:14.879Z,2.30
2023-03-15T01:33:02.160Z,2.47
2023-03-15T01:35:49.942Z,2.22
2023-03-15T01:38:37.117Z,2.22
2023-03-15T01:41:25.851Z,2.00
2023-03-15T01:44:18.147Z,1.95
2023-03-15T01:47:05.466Z,2.20
2023-03-15T01:49:55.896Z,2.35
2023-03-15T01:52:44.354Z,2.60
2023-03-15T01:55:32.498Z,2.35
2023-03-15T01:58:21.353Z,2.25
2023-03-15T02:01:10.478Z,2.10
2023-03-15T02:04:01.469Z,2.42
2023-03-15T02:06:49.249Z,2.30
2023-03-15T02:09:45.418Z,2.40
2023-03-15T02:12:35.988Z,2.10
2023-03-15T02:15:23.453Z,2.37
2023-03-15T02:18:10.851Z,2.27
2023-03-15T02:21:04.091Z,2.22
2023-03-15T02:23:56.997Z,2.08
2023-03-15T02:26:46.947Z,2.10
2023-03-15T02:29:34.246Z,2.77
2023-03-15T02:32:21.310Z,2.70
2023-03-15T02:35:08.905Z,2.27
2023-03-15T02:37:55.853Z,2.10
2023-03-15T02:40:45.122Z,2.10
2023-03-15T02:43:33.791Z,2.47
2023-03-15T02:46:21.888Z,1.98
2023-03-15T02:49:10.890Z,2.40
2023-03-15T02:51:57.994Z,2.05
2023-03-15T02:54:45.053Z,2.20
2023-03-15T02:57:32.382Z,2.02
2023-03-15T03:00:19.928Z,2.25
2023-03-15T03:03:08.766Z,2.05
2023-03-15T03:05:56.007Z,2.50
2023-03-15T03:08:44.897Z,2.35
2023-03-15T03:11:32.119Z,2.70
2023-03-15T03:14:19.483Z,2.35
2023-03-15T03:17:06.885Z,2.12
2023-03-15T03:19:54.306Z,2.58
2023-03-15T03:22:44.657Z,2.17
2023-03-15T03:25:32.094Z,2.80
2023-03-15T03:28:19.129Z,2.37
2023-03-15T03:31:06.373Z,2.35
2023-03-15T03:33:54.083Z,2.25
2023-03-15T03:36:41.151Z,2.22
2023-03-15T03:39:28.507Z,2.10
2023-03-15T03:42:15.602Z,2.12
2023-03-15T03:45:02.789Z,1.80
2023-03-15T03:47:51.573Z,2.80
2023-03-15T03:50:38.539Z,2.27
2023-03-15T03:53:26.276Z,2.67
2023-03-15T03:56:13.623Z,2.77
2023-03-15T03:59:01.004Z,2.22
2023-03-15T04:01:48.440Z,3.12
2023-03-15T04:04:35.748Z,2.47
2023-03-15T04:07:23.164Z,2.70
2023-03-15T04:10:12.341Z,3.10
2023-03-15T04:12:59.370Z,2.50
2023-03-15T04:15:47.132Z,2.98
2023-03-15T04:18:34.034Z,2.92
2023-03-15T04:21:22.972Z,3.00
2023-03-15T04:24:10.216Z,3.72
2023-03-15T04:26:57.815Z,2.80
2023-03-15T04:29:44.885Z,3.25
2023-03-15T04:32:31.946Z,3.35
2023-03-15T04:35:19.186Z,3.55
2023-03-15T04:38:07.221Z,2.90
2023-03-15T04:40:55.247Z,3.52
2023-03-15T04:43:42.677Z,3.83
2023-03-15T04:46:31.531Z,3.95
2023-03-15T04:49:18.871Z,3.50
2023-03-15T04:52:07.847Z,3.30
2023-03-15T04:54:54.860Z,3.80
2023-03-15T04:57:42.268Z,3.37
2023-03-15T05:00:29.618Z,3.85
2023-03-15T05:03:16.597Z,3.52
2023-03-15T05:06:06.197Z,3.40
2023-03-15T05:08:54.455Z,3.90
2023-03-15T05:11:41.730Z,3.75
2023-03-15T05:14:28.747Z,3.05
2023-03-15T05:17:15.962Z,3.47
2023-03-15T05:20:05.099Z,3.47
2023-03-15T05:22:55.628Z,3.40
2023-03-15T05:25:43.226Z,3.33
2023-03-15T05:28:30.197Z,3.60
2023-03-15T05:31:17.514Z,3.52
2023-03-15T05:34:05.097Z,3.02
2023-03-15T05:36:52.629Z,3.47
2023-03-15T05:39:41.244Z,3.60
2023-03-15T05:42:29.246Z,3.05
2023-03-15T05:45:16.773Z,3.10
2023-03-15T05:48:04.004Z,3.25
2023-03-15T05:50:53.201Z,3.60
2023-03-15T05:53:40.381Z,3.72
2023-03-15T05:56:27.697Z,2.95
2023-03-15T05:59:15.106Z,3.33
2023-03-15T06:02:02.208Z,3.37
2023-03-15T06:04:49.588Z,3.05
2023-03-15T06:07:37.370Z,3.15
2023-03-15T06:10:24.658Z,3.65
2023-03-15T06:13:12.141Z,3.77
2023-03-15T06:15:59.528Z,3.33
2023-03-15T06:18:46.897Z,3.80
2023-03-15T06:21:34.184Z,3.95
2023-03-15T06:24:21.262Z,3.58
2023-03-15T06:27:08.652Z,3.98
2023-03-15T06:29:57.311Z,4.45
2023-03-15T06:32:44.743Z,4.25
2023-03-15T06:35:31.807Z,4.10
2023-03-15T06:38:19.306Z,3.85
2023-03-15T06:41:06.535Z,3.60
2023-03-15T06:43:53.828Z,3.67
2023-03-15T06:46:41.141Z,3.25
2023-03-15T06:49:28.426Z,3.08
2023-03-15T06:52:15.512Z,3.70
2023-03-15T06:55:02.788Z,4.42
2023-03-15T06:57:50.055Z,4.72
2023-03-15T07:00:37.363Z,4.00
2023-03-15T07:03:25.385Z,3.80
2023-03-15T07:06:12.409Z,3.47
2023-03-15T07:08:59.805Z,4.15
2023-03-15T07:11:46.856Z,4.20
2023-03-15T07:14:35.307Z,4.25
2023-03-15T07:17:22.307Z,4.90
2023-03-15T07:20:10.899Z,3.83
2023-03-15T07:22:58.286Z,4.35
2023-03-15T07:25:54.768Z,4.08
2023-03-15T07:28:34.642Z,4.50
2023-03-15T07:31:22.202Z,4.58
2023-03-15T07:34:09.643Z,5.15
2023-03-15T07:36:56.741Z,4.75
2023-03-15T07:39:44.057Z,5.10
2023-03-15T07:42:31.146Z,5.78
2023-03-15T07:45:18.930Z,5.65
2023-03-15T07:48:06.336Z,5.00
2023-03-15T07:50:53.461Z,5.47
2023-03-15T07:53:40.920Z,5.08
2023-03-15T07:56:28.276Z,5.53
2023-03-15T07:59:15.564Z,5.15
2023-03-15T08:02:03.246Z,5.42
2023-03-15T08:04:51.325Z,5.28
2023-03-15T08:07:38.612Z,4.72
2023-03-15T08:10:25.854Z,5.30
2023-03-15T08:13:13.998Z,4.80
2023-03-15T08:16:01.492Z,4.90
2023-03-15T08:18:48.511Z,5.30
2023-03-15T08:21:35.646Z,5.70
2023-03-15T08:24:22.875Z,5.05
2023-03-15T08:27:11.065Z,4.70
2023-03-15T08:29:58.230Z,4.80
2023-03-15T08:32:47.703Z,4.85
2023-03-15T08:35:35.301Z,4.30
2023-03-15T08:38:22.958Z,4.40
2023-03-15T08:41:10.378Z,4.00
2023-03-15T08:43:57.505Z,4.08
2023-03-15T08:46:45.041Z,4.62
2023-03-15T08:49:32.894Z,3.77
2023-03-15T08:52:21.378Z,4.20
2023-03-15T08:55:09.039Z,8.25
2023-03-15T08:57:56.241Z,7.67
2023-03-15T09:00:43.688Z,4.97
2023-03-15T09:03:32.618Z,3.90
2023-03-15T09:06:20.109Z,3.42
2023-03-15T09:09:07.480Z,3.45
2023-03-15T09:11:56.036Z,3.98
2023-03-15T09:14:43.800Z,4.25
2023-03-15T09:17:31.656Z,4.22
2023-03-15T09:20:20.780Z,4.33
2023-03-15T09:23:08.082Z,3.25
2023-03-15T09:25:55.190Z,3.47
2023-03-15T09:28:42.296Z,3.05
2023-03-15T09:31:29.555Z,2.80
2023-03-15T09:34:16.961Z,2.72
2023-03-15T09:37:04.507Z,2.75
2023-03-15T09:39:51.800Z,2.60
2023-03-15T09:42:58.742Z,2.55
2023-03-15T09:46:11.988Z,3.33
2023-03-15T09:49:02.024Z,2.20
2023-03-15T09:51:57.679Z,2.40
2023-03-15T09:55:02.801Z,1.85
2023-03-15T09:58:04.184Z,1.75
2023-03-15T10:00:57.219Z,1.60
2023-03-15T10:03:53.007Z,1.85
2023-03-15T10:06:43.569Z,1.98
2023-03-15T10:09:34.407Z,1.62
2023-03-15T10:12:33.726Z,1.77
2023-03-15T10:15:39.087Z,1.87
2023-03-15T10:18:37.947Z,1.70
2023-03-15T10:21:34.054Z,1.95
2023-03-15T10:24:30.291Z,2.10
2023-03-15T10:27:23.824Z,1.90
2023-03-15T10:30:20.360Z,1.45
2023-03-15T10:33:16.205Z,1.75
2023-03-15T10:36:11.594Z,1.70
2023-03-15T10:38:59.178Z,1.40
2023-03-15T10:41:48.832Z,1.60
2023-03-15T10:44:38.108Z,1.55
2023-03-15T10:47:27.127Z,1.50
2023-03-15T10:50:28.478Z,1.60
2023-03-15T10:53:20.188Z,1.30
2023-03-15T10:56:12.058Z,1.40
2023-03-15T10:59:12.415Z,1.37
2023-03-15T11:01:53.631Z,1.52
2023-03-15T11:04:46.613Z,1.50
2023-03-15T11:07:37.921Z,1.60
2023-03-15T11:10:27.592Z,1.50
2023-03-15T11:13:20.715Z,1.35
2023-03-15T11:16:11.061Z,1.47
2023-03-15T11:19:06.431Z,1.37
2023-03-15T11:21:53.763Z,1.42
2023-03-15T11:24:41.418Z,1.40
2023-03-15T11:27:31.714Z,1.90
2023-03-15T11:30:19.595Z,1.65
2023-03-15T11:33:09.373Z,1.57
2023-03-15T11:35:58.963Z,1.80
2023-03-15T11:38:47.134Z,1.85
2023-03-15T11:41:37.499Z,1.90
2023-03-15T11:44:42.501Z,1.60
2023-03-15T11:47:47.595Z,1.90
2023-03-15T11:50:34.658Z,1.60
2023-03-15T11:53:24.210Z,1.82
2023-03-15T11:56:23.491Z,1.60
2023-03-15T11:59:16.236Z,1.57
2023-03-15T12:02:15.558Z,1.60
2023-03-15T12:05:17.704Z,2.10
2023-03-15T12:08:00.956Z,2.17
2023-03-15T12:10:50.593Z,2.05
2023-03-15T12:13:37.800Z,1.80
2023-03-15T12:16:27.901Z,1.92
2023-03-15T12:19:17.374Z,1.52
2023-03-15T12:22:04.776Z,1.52
2023-03-15T12:24:52.026Z,1.60
2023-03-15T12:27:41.369Z,1.70
2023-03-15T12:30:43.676Z,1.90
2023-03-15T12:33:34.331Z,1.82
2023-03-15T12:36:33.294Z,1.98
2023-03-15T12:39:23.520Z,1.80
2023-03-15T12:42:15.460Z,1.57
2023-03-15T12:45:21.370Z,1.35
2023-03-15T12:48:12.967Z,1.55
2023-03-15T12:51:03.704Z,1.32
2023-03-15T12:53:53.024Z,1.47
2023-03-15T12:56:47.436Z,1.40
2023-03-15T12:59:41.158Z,1.45
2023-03-15T13:02:44.630Z,1.50
2023-03-15T13:06:02.810Z,1.15
2023-03-15T13:09:05.392Z,1.37
2023-03-15T13:11:56.113Z,1.52
2023-03-15T13:15:02.057Z,1.20
2023-03-15T13:17:55.023Z,1.55
2023-03-15T13:20:44.497Z,1.80
2023-03-15T13:23:34.777Z,1.55
2023-03-15T13:26:45.699Z,1.55
2023-03-15T13:29:34.162Z,1.67
2023-03-15T13:32:24.223Z,1.37
2023-03-15T13:35:14.260Z,1.65
2023-03-15T13:38:15.568Z,1.60
2023-03-15T13:41:05.699Z,1.60
2023-03-15T13:43:56.024Z,1.27
2023-03-15T13:46:43.021Z,1.65
2023-03-15T13:49:34.545Z,1.30
2023-03-15T13:52:21.702Z,1.25
2023-03-15T13:55:10.130Z,1.62
2023-03-15T13:58:00.450Z,1.72
2023-03-15T14:00:47.881Z,1.90
2023-03-15T14:03:36.588Z,1.98
2023-03-15T14:06:26.595Z,2.10
2023-03-15T14:09:25.580Z,2.15
2023-03-15T14:12:23.085Z,2.25
2023-03-15T14:15:21.444Z,1.92
2023-03-15T14:18:11.757Z,1.65
2023-03-15T14:21:10.482Z,1.77
2023-03-15T14:23:57.577Z,1.70
2023-03-15T14:26:47.132Z,1.57
2023-03-15T14:29:38.600Z,1.57
2023-03-15T14:32:34.147Z,1.35
2023-03-15T14:35:24.543Z,1.25
2023-03-15T14:38:21.036Z,1.00
2023-03-15T14:41:22.926Z,0.80
2023-03-15T14:44:10.024Z,1.17
2023-03-15T14:46:57.451Z,0.90
2023-03-15T14:49:44.540Z,1.30
2023-03-15T14:52:32.891Z,1.25
2023-03-15T14:55:22.980Z,1.00
2023-03-15T14:58:17.161Z,1.50
2023-03-15T15:01:05.056Z,1.40
2023-03-15T15:04:03.176Z,1.10
2023-03-15T15:06:51.438Z,1.00
2023-03-15T15:09:40.173Z,1.60
2023-03-15T15:12:27.801Z,1.20
2023-03-15T15:15:17.801Z,1.50
2023-03-15T15:18:05.471Z,1.30
2023-03-15T15:20:54.727Z,1.02
2023-03-15T15:23:57.413Z,1.22
2023-03-15T15:26:34.465Z,1.40
2023-03-15T15:29:21.464Z,1.10
2023-03-15T15:32:08.866Z,1.10
2023-03-15T15:34:56.188Z,0.88
2023-03-15T15:37:45.780Z,1.05
2023-03-15T15:40:33.949Z,0.80
2023-03-15T15:43:21.151Z,0.90
2023-03-15T15:46:13.102Z,0.82
2023-03-15T15:49:00.232Z,0.98
2023-03-15T15:51:49.741Z,1.40
2023-03-15T15:54:37.482Z,1.00
2023-03-15T15:57:26.580Z,1.15
2023-03-15T16:00:16.372Z,1.30
2023-03-15T16:03:03.447Z,0.95
2023-03-15T16:05:50.573Z,1.02
2023-03-15T16:08:41.031Z,1.10
2023-03-15T16:11:29.395Z,1.20
2023-03-15T16:14:16.901Z,1.22
2023-03-15T16:17:04.209Z,1.20
2023-03-15T16:19:52.476Z,1.20
2023-03-15T16:22:42.586Z,1.60
2023-03-15T16:25:33.649Z,1.20
2023-03-15T16:28:20.564Z,1.20
2023-03-15T16:31:07.885Z,1.20
2023-03-15T16:33:54.894Z,1.47
2023-03-15T16:36:48.987Z,1.27
2023-03-15T16:39:37.717Z,1.40
2023-03-15T16:42:25.677Z,1.32
2023-03-15T16:45:14.107Z,1.32
2023-03-15T16:48:01.211Z,1.40
2023-03-15T16:50:48.509Z,1.27
2023-03-15T16:53:37.256Z,1.30
2023-03-15T16:56:25.251Z,1.32
2023-03-15T16:59:15.439Z,1.52
2023-03-15T17:02:02.979Z,1.62
2023-03-15T17:04:50.884Z,1.27
2023-03-15T17:07:39.866Z,1.20
2023-03-15T17:10:30.770Z,1.45
2023-03-15T17:13:21.170Z,1.67
2023-03-15T17:16:12.027Z,1.52
2023-03-15T17:18:59.313Z,1.57
2023-03-15T17:21:46.887Z,1.50
2023-03-15T17:24:34.522Z,1.20
2023-03-15T17:27:24.792Z,1.67
2023-03-15T17:30:26.632Z,1.62
2023-03-15T17:33:13.811Z,1.60
2023-03-15T17:36:01.457Z,1.60
2023-03-15T17:38:49.144Z,1.42
2023-03-15T17:41:37.809Z,1.60
2023-03-15T17:44:24.990Z,1.70
2023-03-15T17:47:14.916Z,1.80
2023-03-15T17:50:02.003Z,1.60
2023-03-15T17:52:52.349Z,1.70
2023-03-15T17:55:39.802Z,1.32
2023-03-15T17:58:27.374Z,1.90
2023-03-15T18:01:19.328Z,1.52
2023-03-15T18:04:09.686Z,2.05
2023-03-15T18:06:56.918Z,2.20
2023-03-15T18:09:44.203Z,2.67
2023-03-15T18:12:31.423Z,2.20
2023-03-15T18:15:21.304Z,2.35
2023-03-15T18:18:08.474Z,2.70
2023-03-15T18:20:55.475Z,2.62
2023-03-15T18:23:42.745Z,3.30
2023-03-15T18:26:29.992Z,2.65
2023-03-15T18:29:17.368Z,3.02
2023-03-15T18:32:05.158Z,3.58
2023-03-15T18:34:52.381Z,3.33
2023-03-15T18:37:40.110Z,3.92
2023-03-15T18:40:30.040Z,3.27
2023-03-15T18:43:17.035Z,3.50
2023-03-15T18:46:04.240Z,3.20
2023-03-15T18:48:53.320Z,3.30
2023-03-15T18:51:41.426Z,3.37
2023-03-15T18:54:28.774Z,3.22
2023-03-15T18:57:17.033Z,3.58
2023-03-15T19:00:13.705Z,3.22
2023-03-15T19:03:04.384Z,3.33
2023-03-15T19:05:51.537Z,3.35
2023-03-15T19:08:39.865Z,3.00
2023-03-15T19:11:28.885Z,3.00
2023-03-15T19:14:15.834Z,2.90
2023-03-15T19:17:03.120Z,3.27
2023-03-15T19:19:50.582Z,3.98
2023-03-15T19:22:37.673Z,2.80
2023-03-15T19:25:25.098Z,2.98
2023-03-15T19:28:12.432Z,3.40
2023-03-15T19:30:59.950Z,3.15
2023-03-15T19:33:47.077Z,3.55
2023-03-15T19:36:34.270Z,3.52
2023-03-15T19:39:21.607Z,3.47
2023-03-15T19:42:08.840Z,3.60
2023-03-15T19:44:55.978Z,3.25
2023-03-15T19:47:43.799Z,3.47
2023-03-15T19:50:32.686Z,3.25
2023-03-15T19:53:19.977Z,3.25
2023-03-15T19:56:09.423Z,3.70
2023-03-15T19:58:57.070Z,3.27
2023-03-15T20:01:44.441Z,3.47
2023-03-15T20:04:31.764Z,3.52
2023-03-15T20:07:19.179Z,3.20
2023-03-15T20:10:08.597Z,3.15
2023-03-15T20:12:57.805Z,3.58
2023-03-15T20:15:45.419Z,3.15
2023-03-15T20:18:32.338Z,3.67
2023-03-15T20:21:20.327Z,3.33
2023-03-15T20:24:08.640Z,2.92
2023-03-15T20:26:55.717Z,2.95
2023-03-15T20:29:43.191Z,2.92
2023-03-15T20:32:30.580Z,2.50
2023-03-15T20:35:17.601Z,3.60
2023-03-15T20:38:06.465Z,2.80
2023-03-15T20:40:57.278Z,3.17
2023-03-15T20:43:44.289Z,3.40
2023-03-15T20:46:31.728Z,3.10
2023-03-15T20:49:19.088Z,3.52
2023-03-15T20:52:06.450Z,3.15
2023-03-15T20:54:54.074Z,3.72
2023-03-15T20:57:42.836Z,3.50
2023-03-15T21:00:30.079Z,4.12
2023-03-15T21:03:18.343Z,4.28
2023-03-15T21:06:06.766Z,3.27
2023-03-15T21:08:53.709Z,4.12
2023-03-15T21:11:40.928Z,3.58
2023-03-15T21:14:28.155Z,3.98
2023-03-15T21:17:15.683Z,3.85
2023-03-15T21:20:04.410Z,3.50
2023-03-15T21:22:51.807Z,3.30
2023-03-15T21:25:39.464Z,3.60
2023-03-15T21:28:27.169Z,3.58
2023-03-15T21:31:14.472Z,3.50
2023-03-15T21:34:01.625Z,3.98
2023-03-15T21:36:48.851Z,3.10
2023-03-15T21:39:37.850Z,3.58
2023-03-15T21:42:25.202Z,3.87
2023-03-15T21:45:12.669Z,3.70
2023-03-15T21:47:59.855Z,3.70
2023-03-15T21:50:47.130Z,3.40
2023-03-15T21:53:35.643Z,3.25
2023-03-15T21:56:26.014Z,4.03
2023-03-15T21:59:13.534Z,3.17
2023-03-15T22:02:01.632Z,3.27
2023-03-15T22:04:48.934Z,3.02
2023-03-15T22:07:35.988Z,2.90
2023-03-15T22:10:23.741Z,3.15
2023-03-15T22:13:11.280Z,3.20
2023-03-15T22:15:58.643Z,3.10
2023-03-15T22:18:46.267Z,2.80
2023-03-15T22:21:33.234Z,3.00
2023-03-15T22:24:20.525Z,3.77
2023-03-15T22:27:07.821Z,3.17
2023-03-15T22:29:55.125Z,2.62
2023-03-15T22:32:45.643Z,3.02
2023-03-15T22:35:32.764Z,3.47
2023-03-15T22:38:19.957Z,3.20
2023-03-15T22:41:10.080Z,4.30
2023-03-15T22:43:57.609Z,3.95
2023-03-15T22:46:44.726Z,4.25
2023-03-15T22:49:32.175Z,4.85
2023-03-15T22:52:19.456Z,5.20
2023-03-15T22:55:07.741Z,5.50
2023-03-15T22:57:54.956Z,4.83
2023-03-15T23:00:42.471Z,4.80
2023-03-15T23:03:29.458Z,4.03
2023-03-15T23:06:16.958Z,4.25
2023-03-15T23:09:06.280Z,4.37
2023-03-15T23:11:53.027Z,4.20
2023-03-15T23:14:41.296Z,3.83
2023-03-15T23:17:28.534Z,4.22
2023-03-15T23:20:18.449Z,3.72
2023-03-15T23:23:05.826Z,3.50
2023-03-15T23:25:53.825Z,3.85
2023-03-15T23:28:41.130Z,3.50
2023-03-15T23:31:28.471Z,2.95
2023-03-15T23:34:15.974Z,3.02
2023-03-15T23:37:03.190Z,3.08
2023-03-15T23:39:52.668Z,3.35
2023-03-15T23:42:39.695Z,3.37
2023-03-15T23:45:31.700Z,3.72
2023-03-15T23:48:19.313Z,2.75
2023-03-15T23:51:06.670Z,3.20
2023-03-15T23:53:54.053Z,2.85
2023-03-15T23:56:41.442Z,2.90
2023-03-15T23:59:29.065Z,2.70
